Oval Lp No.11 — JL6306 — position and weather

sailwx.info

Track history (hours):
 
Tides and Currents Weather Stations Pressure Air Temp Water Temp Dewpoint Dewpoint Depression Visibility Wind Speed Wind Dir Waves Ship Positions

Oval Lp No.11

Last reported at 2014-Nov-22 15:08 UTC. Time now 2014-Nov-24 02:46 UTC.
Position N 33°56' E 135°00'.

Length 67 m; draft 3.6 m.

Type: Ship (hazmat cat A). MMSI: 431500366.

Date/timePositionNaut miles runAvg speedWind from/ knotsBaromVisibWave heightAir tempDewpointWater temp
2014-Nov-22 15:08N 33°56' E 135°00'812.4
2014-Nov-22 14:31N 34°04' E 134°59'1212.4
2014-Nov-22 13:31N 34°16' E 134°59'1111.4
2014-Nov-22 12:31N 34°26' E 135°06'1111.7
2014-Nov-22 11:33N 34°33' E 135°17'7 7.5
2014-Nov-22 10:33N 34°35' E 135°26'0 0.0
2014-Nov-22 09:33N 34°35' E 135°26'0 0.0
2014-Nov-22 07:15N 34°35' E 135°26'0 0.0
2014-Nov-22 06:33N 34°35' E 135°26'3 3.0
2014-Nov-22 05:34N 34°36' E 135°23'1 0.5
2014-Nov-22 04:30N 34°36' E 135°23'0 0.0
2014-Nov-22 03:12N 34°36' E 135°23'0 0.0
2014-Nov-22 02:24N 34°36' E 135°23'0 0.1
2014-Nov-22 01:30N 34°36' E 135°23'0 0.0
2014-Nov-22 00:27N 34°36' E 135°23'0 0.0
2014-Nov-21 23:27N 34°36' E 135°23'0 0.0
2014-Nov-21 22:33N 34°36' E 135°23'0 0.0
2014-Nov-21 21:27N 34°36' E 135°23'0 0.0
2014-Nov-21 20:33N 34°36' E 135°23'0 0.0
2014-Nov-21 19:21N 34°36' E 135°23'0 0.0
2014-Nov-21 18:33N 34°36' E 135°23'0 0.0
2014-Nov-21 17:33N 34°36' E 135°23'0 0.0
2014-Nov-21 16:27N 34°36' E 135°23'0 0.0
2014-Nov-21 15:33N 34°36' E 135°23'0 0.0
2014-Nov-21 14:27N 34°36' E 135°23'0 0.0
2014-Nov-21 13:30N 34°36' E 135°23'0 0.0
2014-Nov-21 12:24N 34°36' E 135°23'0 0.0
2014-Nov-21 11:30N 34°36' E 135°23'0 0.0
2014-Nov-21 10:30N 34°36' E 135°23'0 0.0
2014-Nov-21 09:30N 34°36' E 135°23'0 0.0
2014-Nov-21 08:24N 34°36' E 135°23'0 0.0
2014-Nov-21 07:34N 34°36' E 135°23'1 0.9
2014-Nov-21 06:34N 34°36' E 135°24'3 2.5
2014-Nov-21 05:30N 34°34' E 135°26'0 0.0
2014-Nov-21 03:17N 34°34' E 135°26'2 2.2
2014-Nov-21 02:33N 34°34' E 135°24'1 0.7
2014-Nov-21 01:17N 34°34' E 135°25'0 0.0
2014-Nov-21 00:11N 34°34' E 135°25'0 0.0
2014-Nov-20 23:24N 34°34' E 135°25'2 2.0
2014-Nov-20 22:26N 34°34' E 135°23'0 0.0
2014-Nov-20 21:14N 34°34' E 135°23'0 0.0
2014-Nov-20 20:32N 34°34' E 135°23'0 0.0
2014-Nov-20 19:14N 34°34' E 135°23'0 0.0
2014-Nov-20 18:26N 34°34' E 135°23'0 0.0
2014-Nov-20 17:26N 34°34' E 135°23'0 0.0
2014-Nov-20 16:32N 34°34' E 135°23'0 0.0
2014-Nov-20 15:32N 34°34' E 135°23'0 0.0
2014-Nov-20 14:32N 34°34' E 135°23'0 0.0
2014-Nov-20 13:14N 34°34' E 135°23'0 0.0
2014-Nov-20 12:32N 34°34' E 135°23'0 0.0
2014-Nov-20 11:32N 34°34' E 135°23'0 0.0
2014-Nov-20 10:32N 34°34' E 135°23'0 0.1
2014-Nov-20 09:32N 34°34' E 135°23'0 0.0
2014-Nov-20 08:28N 34°34' E 135°23'2 2.4
2014-Nov-20 07:32N 34°34' E 135°26'0 0.0
2014-Nov-20 06:32N 34°34' E 135°26'0 0.0
2014-Nov-20 05:14N 34°34' E 135°26'2 2.3
2014-Nov-20 04:33N 34°36' E 135°25'3 0.6
2014-Nov-19 23:33N 34°33' E 135°23'2 2.0
2014-Nov-19 22:21N 34°32' E 135°20'0 0.0
2014-Nov-19 21:33N 34°32' E 135°20'0 0.0
2014-Nov-19 20:21N 34°32' E 135°20'0 0.0
2014-Nov-19 19:15N 34°32' E 135°20'0 0.1
2014-Nov-19 18:33N 34°32' E 135°20'0 0.0
2014-Nov-19 17:33N 34°32' E 135°20'0 0.0
2014-Nov-19 16:33N 34°32' E 135°20'0 0.0
2014-Nov-19 15:21N 34°32' E 135°20'0 0.0
2014-Nov-19 14:27N 34°32' E 135°20'0 0.0
2014-Nov-19 13:21N 34°32' E 135°20'0 0.0
2014-Nov-19 12:33N 34°32' E 135°20'8 8.2
2014-Nov-19 11:32N 34°27' E 135°12'1111.6
2014-Nov-19 10:33N 34°19' E 135°02'1111.3
2014-Nov-19 09:33N 34°08' E 135°00'245 9.7
2014-Nov-18 08:22N 35°15' E 139°46'1011.9
2014-Nov-18 07:33N 35°24' E 139°43'14 2.0
2014-Nov-18 00:14N 35°31' E 139°58'811.4
2014-Nov-17 23:34N 35°27' E 139°50'5 5.0
2014-Nov-17 22:29N 35°24' E 139°45'0 0.0
2014-Nov-17 21:32N 35°24' E 139°45'0 0.0
2014-Nov-17 20:32N 35°24' E 139°45'0 0.0
2014-Nov-17 19:32N 35°24' E 139°45'0 0.0
2014-Nov-17 18:32N 35°24' E 139°45'0 0.0
2014-Nov-17 17:32N 35°24' E 139°45'0 0.0
2014-Nov-17 16:32N 35°24' E 139°45'0 0.0
2014-Nov-17 15:32N 35°24' E 139°45'1 1.4
2014-Nov-17 14:33N 35°25' E 139°43'1 1.2
2014-Nov-17 13:32N 35°24' E 139°45'0 0.0
2014-Nov-17 12:29N 35°24' E 139°45'0 0.0
2014-Nov-17 11:32N 35°24' E 139°45'0 0.0
2014-Nov-17 10:32N 35°24' E 139°45'0 0.0
2014-Nov-17 09:32N 35°24' E 139°45'3 2.6
2014-Nov-17 08:33N 35°27' E 139°44'1 1.0
2014-Nov-17 07:33N 35°26' E 139°43'3 2.6
2014-Nov-17 06:33N 35°24' E 139°44'0 0.0
2014-Nov-17 05:33N 35°24' E 139°44'0 0.0
2014-Nov-17 04:33N 35°24' E 139°44'0 0.0
2014-Nov-17 03:33N 35°24' E 139°44'0 0.1
2014-Nov-17 02:33N 35°24' E 139°44'0 0.0
2014-Nov-17 01:33N 35°24' E 139°44'0 0.0
2014-Nov-17 00:33N 35°24' E 139°44'0 0.0
2014-Nov-16 23:33N 35°24' E 139°44'0 0.0
2014-Nov-16 22:33N 35°24' E 139°44'0 0.0
2014-Nov-16 21:33N 35°24' E 139°44'0 0.0
2014-Nov-16 20:33N 35°24' E 139°44'0 0.0
2014-Nov-16 19:33N 35°24' E 139°44'0 0.0
2014-Nov-16 18:33N 35°24' E 139°44'0 0.0
2014-Nov-16 17:33N 35°24' E 139°44'0 0.0
2014-Nov-16 16:33N 35°24' E 139°44'0 0.0
2014-Nov-16 15:33N 35°24' E 139°44'0 0.0
2014-Nov-16 14:33N 35°24' E 139°44'0 0.0
2014-Nov-16 13:33N 35°24' E 139°44'0 0.0
2014-Nov-16 12:33N 35°24' E 139°44'0 0.0
2014-Nov-16 11:33N 35°24' E 139°44'0 0.0
2014-Nov-16 10:33N 35°24' E 139°44'0 0.0
2014-Nov-16 09:33N 35°24' E 139°44'0 0.0
2014-Nov-16 08:30N 35°24' E 139°44'0 0.0
2014-Nov-16 07:33N 35°24' E 139°44'3 2.6
2014-Nov-16 06:33N 35°26' E 139°43'3 2.4
2014-Nov-16 05:32N 35°24' E 139°45'0 0.0
2014-Nov-16 04:32N 35°24' E 139°45'0 0.0
2014-Nov-16 03:32N 35°24' E 139°45'0 0.0
2014-Nov-16 02:29N 35°24' E 139°45'0 0.0
2014-Nov-16 01:29N 35°24' E 139°45'0 0.0
2014-Nov-16 00:32N 35°24' E 139°45'0 0.0
2014-Nov-15 23:32N 35°24' E 139°45'1 0.6
2014-Nov-15 22:33N 35°24' E 139°44'5 4.7
2014-Nov-15 21:33N 35°28' E 139°48'7 0.4
2014-Nov-15 02:33N 35°30' E 139°57'6 0.3
2014-Nov-14 08:33N 35°27' E 139°50'1110.8
2014-Nov-14 07:33N 35°17' E 139°46'24910.3
2014-Nov-13 07:23N 33°57' E 134°59'1012.2
2014-Nov-13 06:33N 34°07' E 134°59'1211.5
2014-Nov-13 05:32N 34°19' E 134°59'1010.4
2014-Nov-13 04:33N 34°27' E 135°07'1111.4
2014-Nov-13 03:33N 34°33' E 135°18'6 6.5
2014-Nov-13 02:33N 34°34' E 135°26'0 0.0
2014-Nov-13 01:24N 34°34' E 135°26'0 0.0
2014-Nov-13 00:18N 34°34' E 135°26'0 0.1
2014-Nov-12 23:33N 34°34' E 135°26'3 3.0
2014-Nov-12 22:33N 34°36' E 135°23'1 1.0
2014-Nov-12 21:33N 34°35' E 135°23'0 0.0
2014-Nov-12 20:33N 34°35' E 135°23'0 0.0
2014-Nov-12 19:33N 34°35' E 135°23'0 0.0
2014-Nov-12 18:33N 34°35' E 135°23'0 0.0
2014-Nov-12 17:15N 34°35' E 135°23'0 0.0
2014-Nov-12 16:33N 34°35' E 135°23'0 0.0
2014-Nov-12 15:15N 34°35' E 135°23'  
Track history (hours):
 
Tides and Currents Weather Stations Pressure Air Temp Water Temp Dewpoint Dewpoint Depression Visibility Wind Speed Wind Dir Waves Ship Positions

Oval Lp No.11

Last reported at 2014-Nov-22 15:08 UTC. Time now 2014-Nov-24 02:46 UTC.
Position N 33°56' E 135°00'.

Length 67 m; draft 3.6 m.

Type: Ship (hazmat cat A). MMSI: 431500366.

Date/timePositionNaut miles runAvg speedWind from/ knotsBaromVisibWave heightAir tempDewpointWater temp
2014-Nov-22 15:08N 33°56' E 135°00'812.4
2014-Nov-22 14:31N 34°04' E 134°59'1212.4
2014-Nov-22 13:31N 34°16' E 134°59'1111.4
2014-Nov-22 12:31N 34°26' E 135°06'1111.7
2014-Nov-22 11:33N 34°33' E 135°17'7 7.5
2014-Nov-22 10:33N 34°35' E 135°26'0 0.0
2014-Nov-22 09:33N 34°35' E 135°26'0 0.0
2014-Nov-22 07:15N 34°35' E 135°26'0 0.0
2014-Nov-22 06:33N 34°35' E 135°26'3 3.0
2014-Nov-22 05:34N 34°36' E 135°23'1 0.5
2014-Nov-22 04:30N 34°36' E 135°23'0 0.0
2014-Nov-22 03:12N 34°36' E 135°23'0 0.0
2014-Nov-22 02:24N 34°36' E 135°23'0 0.1
2014-Nov-22 01:30N 34°36' E 135°23'0 0.0
2014-Nov-22 00:27N 34°36' E 135°23'0 0.0
2014-Nov-21 23:27N 34°36' E 135°23'0 0.0
2014-Nov-21 22:33N 34°36' E 135°23'0 0.0
2014-Nov-21 21:27N 34°36' E 135°23'0 0.0
2014-Nov-21 20:33N 34°36' E 135°23'0 0.0
2014-Nov-21 19:21N 34°36' E 135°23'0 0.0
2014-Nov-21 18:33N 34°36' E 135°23'0 0.0
2014-Nov-21 17:33N 34°36' E 135°23'0 0.0
2014-Nov-21 16:27N 34°36' E 135°23'0 0.0
2014-Nov-21 15:33N 34°36' E 135°23'0 0.0
2014-Nov-21 14:27N 34°36' E 135°23'0 0.0
2014-Nov-21 13:30N 34°36' E 135°23'0 0.0
2014-Nov-21 12:24N 34°36' E 135°23'0 0.0
2014-Nov-21 11:30N 34°36' E 135°23'0 0.0
2014-Nov-21 10:30N 34°36' E 135°23'0 0.0
2014-Nov-21 09:30N 34°36' E 135°23'0 0.0
2014-Nov-21 08:24N 34°36' E 135°23'0 0.0
2014-Nov-21 07:34N 34°36' E 135°23'1 0.9
2014-Nov-21 06:34N 34°36' E 135°24'3 2.5
2014-Nov-21 05:30N 34°34' E 135°26'0 0.0
2014-Nov-21 03:17N 34°34' E 135°26'2 2.2
2014-Nov-21 02:33N 34°34' E 135°24'1 0.7
2014-Nov-21 01:17N 34°34' E 135°25'0 0.0
2014-Nov-21 00:11N 34°34' E 135°25'0 0.0
2014-Nov-20 23:24N 34°34' E 135°25'2 2.0
2014-Nov-20 22:26N 34°34' E 135°23'0 0.0
2014-Nov-20 21:14N 34°34' E 135°23'0 0.0
2014-Nov-20 20:32N 34°34' E 135°23'0 0.0
2014-Nov-20 19:14N 34°34' E 135°23'0 0.0
2014-Nov-20 18:26N 34°34' E 135°23'0 0.0
2014-Nov-20 17:26N 34°34' E 135°23'0 0.0
2014-Nov-20 16:32N 34°34' E 135°23'0 0.0
2014-Nov-20 15:32N 34°34' E 135°23'0 0.0
2014-Nov-20 14:32N 34°34' E 135°23'0 0.0
2014-Nov-20 13:14N 34°34' E 135°23'0 0.0
2014-Nov-20 12:32N 34°34' E 135°23'0 0.0
2014-Nov-20 11:32N 34°34' E 135°23'0 0.0
2014-Nov-20 10:32N 34°34' E 135°23'0 0.1
2014-Nov-20 09:32N 34°34' E 135°23'0 0.0
2014-Nov-20 08:28N 34°34' E 135°23'2 2.4
2014-Nov-20 07:32N 34°34' E 135°26'0 0.0
2014-Nov-20 06:32N 34°34' E 135°26'0 0.0
2014-Nov-20 05:14N 34°34' E 135°26'2 2.3
2014-Nov-20 04:33N 34°36' E 135°25'3 0.6
2014-Nov-19 23:33N 34°33' E 135°23'2 2.0
2014-Nov-19 22:21N 34°32' E 135°20'0 0.0
2014-Nov-19 21:33N 34°32' E 135°20'0 0.0
2014-Nov-19 20:21N 34°32' E 135°20'0 0.0
2014-Nov-19 19:15N 34°32' E 135°20'0 0.1
2014-Nov-19 18:33N 34°32' E 135°20'0 0.0
2014-Nov-19 17:33N 34°32' E 135°20'0 0.0
2014-Nov-19 16:33N 34°32' E 135°20'0 0.0
2014-Nov-19 15:21N 34°32' E 135°20'0 0.0
2014-Nov-19 14:27N 34°32' E 135°20'0 0.0
2014-Nov-19 13:21N 34°32' E 135°20'0 0.0
2014-Nov-19 12:33N 34°32' E 135°20'8 8.2
2014-Nov-19 11:32N 34°27' E 135°12'1111.6
2014-Nov-19 10:33N 34°19' E 135°02'1111.3
2014-Nov-19 09:33N 34°08' E 135°00'245 9.7
2014-Nov-18 08:22N 35°15' E 139°46'1011.9
2014-Nov-18 07:33N 35°24' E 139°43'14 2.0
2014-Nov-18 00:14N 35°31' E 139°58'811.4
2014-Nov-17 23:34N 35°27' E 139°50'5 5.0
2014-Nov-17 22:29N 35°24' E 139°45'0 0.0
2014-Nov-17 21:32N 35°24' E 139°45'0 0.0
2014-Nov-17 20:32N 35°24' E 139°45'0 0.0
2014-Nov-17 19:32N 35°24' E 139°45'0 0.0
2014-Nov-17 18:32N 35°24' E 139°45'0 0.0
2014-Nov-17 17:32N 35°24' E 139°45'0 0.0
2014-Nov-17 16:32N 35°24' E 139°45'0 0.0
2014-Nov-17 15:32N 35°24' E 139°45'1 1.4
2014-Nov-17 14:33N 35°25' E 139°43'1 1.2
2014-Nov-17 13:32N 35°24' E 139°45'0 0.0
2014-Nov-17 12:29N 35°24' E 139°45'0 0.0
2014-Nov-17 11:32N 35°24' E 139°45'0 0.0
2014-Nov-17 10:32N 35°24' E 139°45'0 0.0
2014-Nov-17 09:32N 35°24' E 139°45'3 2.6
2014-Nov-17 08:33N 35°27' E 139°44'1 1.0
2014-Nov-17 07:33N 35°26' E 139°43'3 2.6
2014-Nov-17 06:33N 35°24' E 139°44'0 0.0
2014-Nov-17 05:33N 35°24' E 139°44'0 0.0
2014-Nov-17 04:33N 35°24' E 139°44'0 0.0
2014-Nov-17 03:33N 35°24' E 139°44'0 0.1
2014-Nov-17 02:33N 35°24' E 139°44'0 0.0
2014-Nov-17 01:33N 35°24' E 139°44'0 0.0
2014-Nov-17 00:33N 35°24' E 139°44'0 0.0
2014-Nov-16 23:33N 35°24' E 139°44'0 0.0
2014-Nov-16 22:33N 35°24' E 139°44'0 0.0
2014-Nov-16 21:33N 35°24' E 139°44'0 0.0
2014-Nov-16 20:33N 35°24' E 139°44'0 0.0
2014-Nov-16 19:33N 35°24' E 139°44'0 0.0
2014-Nov-16 18:33N 35°24' E 139°44'0 0.0
2014-Nov-16 17:33N 35°24' E 139°44'0 0.0
2014-Nov-16 16:33N 35°24' E 139°44'0 0.0
2014-Nov-16 15:33N 35°24' E 139°44'0 0.0
2014-Nov-16 14:33N 35°24' E 139°44'0 0.0
2014-Nov-16 13:33N 35°24' E 139°44'0 0.0
2014-Nov-16 12:33N 35°24' E 139°44'0 0.0
2014-Nov-16 11:33N 35°24' E 139°44'0 0.0
2014-Nov-16 10:33N 35°24' E 139°44'0 0.0
2014-Nov-16 09:33N 35°24' E 139°44'0 0.0
2014-Nov-16 08:30N 35°24' E 139°44'0 0.0
2014-Nov-16 07:33N 35°24' E 139°44'3 2.6
2014-Nov-16 06:33N 35°26' E 139°43'3 2.4
2014-Nov-16 05:32N 35°24' E 139°45'0 0.0
2014-Nov-16 04:32N 35°24' E 139°45'0 0.0
2014-Nov-16 03:32N 35°24' E 139°45'0 0.0
2014-Nov-16 02:29N 35°24' E 139°45'0 0.0
2014-Nov-16 01:29N 35°24' E 139°45'0 0.0
2014-Nov-16 00:32N 35°24' E 139°45'0 0.0
2014-Nov-15 23:32N 35°24' E 139°45'1 0.6
2014-Nov-15 22:33N 35°24' E 139°44'5 4.7
2014-Nov-15 21:33N 35°28' E 139°48'7 0.4
2014-Nov-15 02:33N 35°30' E 139°57'6 0.3
2014-Nov-14 08:33N 35°27' E 139°50'1110.8
2014-Nov-14 07:33N 35°17' E 139°46'24910.3
2014-Nov-13 07:23N 33°57' E 134°59'1012.2
2014-Nov-13 06:33N 34°07' E 134°59'1211.5
2014-Nov-13 05:32N 34°19' E 134°59'1010.4
2014-Nov-13 04:33N 34°27' E 135°07'1111.4
2014-Nov-13 03:33N 34°33' E 135°18'6 6.5
2014-Nov-13 02:33N 34°34' E 135°26'0 0.0
2014-Nov-13 01:24N 34°34' E 135°26'0 0.0
2014-Nov-13 00:18N 34°34' E 135°26'0 0.1
2014-Nov-12 23:33N 34°34' E 135°26'3 3.0
2014-Nov-12 22:33N 34°36' E 135°23'1 1.0
2014-Nov-12 21:33N 34°35' E 135°23'0 0.0
2014-Nov-12 20:33N 34°35' E 135°23'0 0.0
2014-Nov-12 19:33N 34°35' E 135°23'0 0.0
2014-Nov-12 18:33N 34°35' E 135°23'0 0.0
2014-Nov-12 17:15N 34°35' E 135°23'0 0.0
2014-Nov-12 16:33N 34°35' E 135°23'0 0.0
2014-Nov-12 15:15N 34°35' E 135°23'  

Dump ship's entire track history